createdAt,value
2017-09-19T00:01:16.932Z,11.69
2017-09-19T00:02:38.483Z,11.73
2017-09-19T00:03:59.951Z,11.64
2017-09-19T00:05:21.769Z,11.61
2017-09-19T00:06:43.623Z,11.6
2017-09-19T00:08:05.102Z,11.64
2017-09-19T00:09:26.893Z,11.62
2017-09-19T00:10:48.073Z,11.61
2017-09-19T00:12:09.876Z,11.6
2017-09-19T00:13:31.984Z,11.62
2017-09-19T00:14:54.600Z,11.65
2017-09-19T00:16:16.403Z,11.65
2017-09-19T00:17:38.543Z,11.6
2017-09-19T00:18:59.704Z,11.72
2017-09-19T00:20:21.777Z,11.69
2017-09-19T00:21:44.000Z,11.61
2017-09-19T00:23:05.485Z,11.65
2017-09-19T00:24:27.334Z,11.61
2017-09-19T00:25:49.243Z,11.6
2017-09-19T00:27:11.434Z,11.64
2017-09-19T00:28:33.912Z,11.58
2017-09-19T00:29:56.036Z,11.61
2017-09-19T00:31:17.493Z,11.69
2017-09-19T00:32:39.609Z,11.57
2017-09-19T00:34:01.418Z,11.62
2017-09-19T00:35:22.608Z,11.61
2017-09-19T00:36:44.644Z,11.64
2017-09-19T00:38:06.453Z,11.67
2017-09-19T00:39:28.601Z,11.62
2017-09-19T00:40:50.106Z,11.61
2017-09-19T00:42:12.198Z,11.6
2017-09-19T00:43:34.012Z,11.6
2017-09-19T00:44:56.453Z,11.58
2017-09-19T00:46:18.266Z,11.54
2017-09-19T00:47:40.532Z,11.58
2017-09-19T00:49:02.322Z,11.61
2017-09-19T00:50:24.460Z,11.55
2017-09-19T00:51:46.585Z,11.52
2017-09-19T00:53:08.703Z,11.6
2017-09-19T00:54:30.515Z,11.55
2017-09-19T00:55:52.311Z,11.55
2017-09-19T00:57:14.445Z,11.51
2017-09-19T00:58:36.613Z,11.51
2017-09-19T00:59:58.743Z,11.47
2017-09-19T01:01:20.886Z,11.37
2017-09-19T01:02:43.104Z,11.44
2017-09-19T01:04:05.164Z,11.35
2017-09-19T01:05:27.062Z,11.32
2017-09-19T01:06:48.883Z,11.42
2017-09-19T01:08:11.143Z,11.39
2017-09-19T01:09:33.278Z,11.42
2017-09-19T01:10:54.903Z,11.27
2017-09-19T01:12:16.397Z,11.36
2017-09-19T01:13:38.211Z,11.37
2017-09-19T01:15:00.297Z,11.42
2017-09-19T01:16:22.413Z,11.39
2017-09-19T01:17:44.282Z,11.36
2017-09-19T01:19:06.462Z,11.33
2017-09-19T01:20:28.643Z,11.36
2017-09-19T01:21:49.799Z,11.28
2017-09-19T01:23:11.635Z,11.22
2017-09-19T01:24:33.756Z,11.19
2017-09-19T01:25:56.490Z,11.14
2017-09-19T01:27:18.393Z,11.09
2017-09-19T01:28:40.233Z,11.04
2017-09-19T01:30:02.354Z,10.89
2017-09-19T01:31:24.197Z,10.84
2017-09-19T01:32:46.311Z,10.74
2017-09-19T01:34:07.814Z,10.74
2017-09-19T01:35:30.256Z,10.66
2017-09-19T01:36:52.411Z,10.59
2017-09-19T01:38:14.208Z,10.61
2017-09-19T01:39:36.035Z,10.52
2017-09-19T01:40:57.864Z,10.47
2017-09-19T01:42:20.040Z,10.42
2017-09-19T01:43:41.523Z,10.4
2017-09-19T01:45:02.683Z,10.3
2017-09-19T01:46:24.544Z,10.22
2017-09-19T01:47:46.663Z,10.15
2017-09-19T01:49:08.147Z,10.14
2017-09-19T01:50:30.633Z,10.02
2017-09-19T01:51:51.812Z,10.02
2017-09-19T01:53:14.282Z,9.96
2017-09-19T01:54:36.495Z,9.87
2017-09-19T01:55:58.603Z,9.93
2017-09-19T01:57:20.846Z,9.91
2017-09-19T01:58:43.263Z,9.9
2017-09-19T02:00:05.422Z,9.81
2017-09-19T02:01:27.223Z,9.74
2017-09-19T02:02:49.031Z,9.66
2017-09-19T02:04:11.128Z,9.68
2017-09-19T02:05:33.243Z,9.58
2017-09-19T02:06:54.723Z,9.56
2017-09-19T02:08:16.534Z,9.58
2017-09-19T02:09:38.952Z,9.56
2017-09-19T02:11:01.405Z,9.4
2017-09-19T02:12:23.950Z,9.4
2017-09-19T02:13:45.426Z,9.42
2017-09-19T02:15:08.329Z,9.43
2017-09-19T02:16:30.150Z,9.43
2017-09-19T02:17:51.963Z,9.43
2017-09-19T02:19:14.103Z,9.35
2017-09-19T02:20:36.812Z,9.29
2017-09-19T02:21:58.636Z,9.28
2017-09-19T02:23:21.052Z,9.28
2017-09-19T02:24:43.273Z,9.26
2017-09-19T02:26:05.069Z,9.24
2017-09-19T02:27:26.556Z,9.2
2017-09-19T02:28:48.990Z,9.2
2017-09-19T02:30:11.538Z,9.13
2017-09-19T02:31:33.672Z,9.11
2017-09-19T02:32:55.464Z,9.11
2017-09-19T02:34:16.713Z,9.13
2017-09-19T02:35:38.523Z,9.05
2017-09-19T02:37:00.683Z,9.05
2017-09-19T02:38:22.201Z,9.02
2017-09-19T02:39:43.735Z,8.89
2017-09-19T02:41:05.899Z,8.96
2017-09-19T02:42:28.266Z,9.04
2017-09-19T02:43:49.763Z,8.89
2017-09-19T02:45:11.582Z,8.96
2017-09-19T02:46:33.804Z,8.95
2017-09-19T02:47:55.540Z,8.95
2017-09-19T02:49:17.332Z,8.96
2017-09-19T02:50:39.144Z,8.87
2017-09-19T02:52:00.967Z,8.92
2017-09-19T02:53:22.714Z,8.83
2017-09-19T02:54:44.941Z,8.8
2017-09-19T02:56:06.423Z,8.81
2017-09-19T02:57:28.223Z,8.84
2017-09-19T02:58:50.510Z,8.86
2017-09-19T03:00:12.445Z,8.84
2017-09-19T03:01:34.564Z,8.76
2017-09-19T03:02:55.731Z,8.77
2017-09-19T03:04:18.533Z,8.77
2017-09-19T03:05:40.404Z,8.74
2017-09-19T03:07:02.860Z,8.63
2017-09-19T03:08:24.365Z,8.68
2017-09-19T03:09:47.114Z,8.7
2017-09-19T03:11:09.261Z,8.66
2017-09-19T03:12:31.433Z,8.59
2017-09-19T03:13:53.233Z,8.61
2017-09-19T03:15:15.972Z,8.55
2017-09-19T03:16:37.133Z,8.55
2017-09-19T03:17:59.293Z,8.5
2017-09-19T03:19:21.414Z,8.52
2017-09-19T03:20:42.819Z,8.5
2017-09-19T03:22:04.354Z,8.5
2017-09-19T03:23:26.166Z,8.52
2017-09-19T03:24:47.963Z,8.5
2017-09-19T03:26:10.042Z,8.52
2017-09-19T03:27:32.186Z,8.55
2017-09-19T03:28:54.324Z,8.48
2017-09-19T03:30:15.809Z,8.61
2017-09-19T03:31:37.873Z,8.55
2017-09-19T03:33:00.333Z,8.66
2017-09-19T03:34:21.489Z,8.65
2017-09-19T03:35:43.633Z,8.66
2017-09-19T03:37:06.314Z,8.76
2017-09-19T03:38:28.122Z,8.83
2017-09-19T03:39:50.572Z,8.73
2017-09-19T03:41:12.682Z,8.7
2017-09-19T03:42:34.804Z,8.76
2017-09-19T03:43:56.644Z,8.74
2017-09-19T03:45:18.463Z,8.76
2017-09-19T03:46:40.261Z,8.77
2017-09-19T03:48:02.444Z,8.86
2017-09-19T03:49:24.572Z,8.8
2017-09-19T03:50:46.692Z,8.84
2017-09-19T03:52:08.813Z,8.84
2017-09-19T03:53:31.294Z,8.8
2017-09-19T03:54:53.420Z,8.84
2017-09-19T03:56:15.423Z,8.94
2017-09-19T03:57:37.862Z,8.99
2017-09-19T03:58:59.973Z,8.94
2017-09-19T04:00:21.466Z,8.98
2017-09-19T04:01:43.296Z,8.95
2017-09-19T04:03:05.189Z,8.98
2017-09-19T04:04:27.884Z,8.91
2017-09-19T04:05:49.719Z,9.05
2017-09-19T04:07:11.195Z,9.1
2017-09-19T04:08:33.048Z,9.02
2017-09-19T04:09:54.793Z,9.01
2017-09-19T04:11:17.023Z,9.04
2017-09-19T04:12:39.145Z,9.04
2017-09-19T04:14:01.294Z,9.04
2017-09-19T04:15:23.989Z,9.04
2017-09-19T04:16:45.782Z,9.01
2017-09-19T04:18:07.254Z,9.08
2017-09-19T04:19:28.794Z,9.1
2017-09-19T04:20:50.848Z,9.11
2017-09-19T04:22:13.414Z,9.18
2017-09-19T04:23:35.872Z,9.14
2017-09-19T04:24:57.673Z,9.1
2017-09-19T04:26:19.793Z,9.17
2017-09-19T04:27:42.243Z,9.15
2017-09-19T04:29:04.424Z,9.21
2017-09-19T04:30:26.513Z,9.14
2017-09-19T04:31:48.617Z,9.28
2017-09-19T04:33:10.423Z,9.33
2017-09-19T04:34:32.353Z,9.26
2017-09-19T04:35:54.144Z,9.29
2017-09-19T04:37:16.628Z,9.38
2017-09-19T04:38:38.161Z,9.4
2017-09-19T04:40:00.110Z,9.42
2017-09-19T04:41:21.604Z,9.47
2017-09-19T04:42:43.663Z,9.54
2017-09-19T04:44:06.119Z,9.5
2017-09-19T04:45:27.961Z,9.58
2017-09-19T04:46:50.124Z,9.6
2017-09-19T04:48:13.034Z,9.56
2017-09-19T04:49:35.179Z,9.61
2017-09-19T04:50:57.312Z,9.58
2017-09-19T04:52:19.463Z,9.66
2017-09-19T04:53:41.893Z,9.66
2017-09-19T04:55:03.764Z,9.68
2017-09-19T04:56:25.999Z,9.66
2017-09-19T04:57:47.792Z,9.68
2017-09-19T04:59:10.264Z,9.72
2017-09-19T05:00:32.471Z,9.78
2017-09-19T05:01:53.955Z,9.89
2017-09-19T05:03:16.090Z,9.84
2017-09-19T05:04:38.895Z,9.81
2017-09-19T05:06:01.005Z,9.9
2017-09-19T05:07:23.454Z,9.93
2017-09-19T05:08:45.581Z,9.86
2017-09-19T05:10:07.033Z,10.01
2017-09-19T05:11:28.973Z,9.96
2017-09-19T05:12:51.121Z,9.89
2017-09-19T05:14:13.234Z,9.87
2017-09-19T05:15:35.383Z,9.87
2017-09-19T05:16:57.566Z,9.86
2017-09-19T05:18:19.807Z,9.83
2017-09-19T05:19:41.943Z,9.9
2017-09-19T05:21:04.213Z,9.87
2017-09-19T05:22:26.032Z,9.91
2017-09-19T05:23:47.904Z,10.07
2017-09-19T05:25:10.035Z,10.01
2017-09-19T05:26:32.417Z,9.99
2017-09-19T05:27:54.555Z,10.18
2017-09-19T05:29:16.696Z,10.18
2017-09-19T05:30:38.840Z,10.2
2017-09-19T05:32:01.214Z,10.18
2017-09-19T05:33:23.752Z,10.32
2017-09-19T05:34:45.343Z,10.38
2017-09-19T05:36:07.169Z,10.27
2017-09-19T05:37:29.316Z,10.41
2017-09-19T05:38:51.781Z,10.41
2017-09-19T05:40:13.614Z,10.42
2017-09-19T05:41:35.097Z,10.4
2017-09-19T05:42:57.262Z,10.44
2017-09-19T05:44:19.394Z,10.42
2017-09-19T05:45:41.903Z,10.51
2017-09-19T05:47:03.823Z,10.52
2017-09-19T05:48:25.872Z,10.51
2017-09-19T05:49:48.020Z,10.6
2017-09-19T05:51:09.893Z,10.67
2017-09-19T05:52:31.723Z,10.66
2017-09-19T05:53:54.144Z,10.67
2017-09-19T05:55:16.429Z,10.68
2017-09-19T05:56:38.244Z,10.71
2017-09-19T05:58:00.063Z,10.81
2017-09-19T05:59:22.632Z,10.91
2017-09-19T06:00:44.147Z,10.92
2017-09-19T06:02:06.286Z,11.03
2017-09-19T06:03:27.452Z,11.11
2017-09-19T06:04:49.923Z,11.19
2017-09-19T06:06:12.066Z,11.22
2017-09-19T06:07:33.875Z,11.33
2017-09-19T06:08:56.344Z,11.37
2017-09-19T06:10:18.707Z,11.33
2017-09-19T06:11:40.883Z,11.49
2017-09-19T06:13:02.815Z,11.51
2017-09-19T06:14:25.063Z,11.43
2017-09-19T06:15:47.443Z,11.49
2017-09-19T06:17:08.953Z,11.61
2017-09-19T06:18:31.094Z,11.57
2017-09-19T06:19:52.598Z,11.62
2017-09-19T06:21:15.193Z,11.57
2017-09-19T06:22:37.336Z,11.64
2017-09-19T06:23:59.157Z,11.62
2017-09-19T06:25:21.607Z,11.69
2017-09-19T06:26:43.753Z,11.78
2017-09-19T06:28:05.874Z,11.75
2017-09-19T06:29:28.008Z,11.75
2017-09-19T06:30:50.132Z,11.75
2017-09-19T06:32:12.670Z,11.86
2017-09-19T06:33:34.189Z,11.86
2017-09-19T06:34:56.503Z,11.95
2017-09-19T06:36:17.986Z,11.9
2017-09-19T06:37:40.373Z,11.99
2017-09-19T06:39:02.513Z,11.98
2017-09-19T06:40:24.329Z,11.98
2017-09-19T06:41:46.458Z,11.88
2017-09-19T06:43:08.933Z,11.85
2017-09-19T06:44:31.044Z,11.75
2017-09-19T06:45:52.833Z,11.9
2017-09-19T06:47:15.004Z,11.98
2017-09-19T06:48:37.364Z,12.09
2017-09-19T06:49:59.789Z,12.28
2017-09-19T06:51:21.723Z,12.29
2017-09-19T06:52:43.265Z,12.35
2017-09-19T06:54:05.702Z,12.5
2017-09-19T06:55:28.139Z,12.6
2017-09-19T06:56:50.308Z,12.64
2017-09-19T06:58:12.742Z,12.71
2017-09-19T06:59:34.794Z,12.79
2017-09-19T07:00:56.287Z,12.96
2017-09-19T07:02:18.513Z,12.97
2017-09-19T07:03:40.629Z,13.04
2017-09-19T07:05:02.724Z,13.23
2017-09-19T07:06:24.215Z,13.32
2017-09-19T07:07:46.034Z,13.3
2017-09-19T07:09:08.253Z,13.44
2017-09-19T07:10:30.640Z,13.44
2017-09-19T07:11:52.783Z,13.59
2017-09-19T07:13:15.251Z,13.75
2017-09-19T07:14:36.753Z,13.88
2017-09-19T07:15:59.136Z,14.02
2017-09-19T07:17:20.604Z,14.14
2017-09-19T07:18:43.043Z,14.22
2017-09-19T07:20:04.874Z,14.35
2017-09-19T07:21:27.350Z,14.47
2017-09-19T07:22:49.943Z,14.64
2017-09-19T07:24:12.053Z,14.88
2017-09-19T07:25:33.523Z,15.09
2017-09-19T07:26:55.723Z,15.39
2017-09-19T07:28:16.895Z,15.62
2017-09-19T07:29:38.698Z,15.8
2017-09-19T07:31:01.143Z,16.17
2017-09-19T07:32:23.579Z,16.45
2017-09-19T07:33:46.023Z,16.61
2017-09-19T07:35:07.831Z,16.75
2017-09-19T07:36:30.063Z,16.86
2017-09-19T07:37:52.559Z,16.91
2017-09-19T07:39:14.362Z,16.86
2017-09-19T07:40:35.901Z,16.76
2017-09-19T07:41:57.765Z,16.64
2017-09-19T07:43:20.263Z,16.53
2017-09-19T07:44:41.161Z,16.41
2017-09-19T07:46:02.652Z,16.31
2017-09-19T07:47:24.760Z,16.25
2017-09-19T07:48:47.259Z,16.34
2017-09-19T07:50:09.412Z,16.52
2017-09-19T07:51:31.520Z,16.42
2017-09-19T07:52:53.325Z,16.53
2017-09-19T07:54:15.740Z,16.49
2017-09-19T07:55:37.239Z,16.33
2017-09-19T07:56:59.374Z,16.38
2017-09-19T07:58:21.504Z,16.48
2017-09-19T07:59:44.309Z,16.67
2017-09-19T08:01:06.140Z,16.73
2017-09-19T08:02:28.256Z,16.76
2017-09-19T08:03:49.425Z,16.81
2017-09-19T08:05:12.121Z,16.94
2017-09-19T08:06:34.613Z,17
2017-09-19T08:07:57.153Z,16.79
2017-09-19T08:09:18.972Z,16.67
2017-09-19T08:10:41.443Z,16.83
2017-09-19T08:12:03.575Z,16.88
2017-09-19T08:13:25.715Z,17.12
2017-09-19T08:14:48.193Z,17.11
2017-09-19T08:16:11.019Z,17.11
2017-09-19T08:17:32.952Z,17.23
2017-09-19T08:18:55.082Z,17.25
2017-09-19T08:20:16.916Z,17.08
2017-09-19T08:21:39.163Z,17
2017-09-19T08:23:01.341Z,17.03
2017-09-19T08:24:23.793Z,17.16
2017-09-19T08:25:45.273Z,17.19
2017-09-19T08:27:07.743Z,17.3
2017-09-19T08:28:29.573Z,17.48
2017-09-19T08:29:51.052Z,17.46
2017-09-19T08:31:12.231Z,17.54
2017-09-19T08:32:35.163Z,17.77
2017-09-19T08:33:56.744Z,17.86
2017-09-19T08:35:18.576Z,18.25
2017-09-19T08:36:40.794Z,18.25
2017-09-19T08:38:03.145Z,18.39
2017-09-19T08:39:25.323Z,18.62
2017-09-19T08:40:47.443Z,18.62
2017-09-19T08:42:09.563Z,18.84
2017-09-19T08:43:32.498Z,18.82
2017-09-19T08:44:54.309Z,19.02
2017-09-19T08:46:16.131Z,19.18
2017-09-19T08:47:37.954Z,19.11
2017-09-19T08:49:00.711Z,19.22
2017-09-19T08:50:23.203Z,19.1
2017-09-19T08:51:45.344Z,19.08
2017-09-19T08:53:07.862Z,19.16
2017-09-19T08:54:30.261Z,19.06
2017-09-19T08:55:52.083Z,19.21
2017-09-19T08:57:14.416Z,19.13
2017-09-19T08:58:36.593Z,18.85
2017-09-19T08:59:59.192Z,18.81
2017-09-19T09:01:21.347Z,18.9
2017-09-19T09:02:43.494Z,18.87
2017-09-19T09:04:05.316Z,18.57
2017-09-19T09:05:26.737Z,18.57
2017-09-19T09:06:48.873Z,18.62
2017-09-19T09:08:11.031Z,18.63
2017-09-19T09:09:32.822Z,18.62
2017-09-19T09:10:54.682Z,18.85
2017-09-19T09:12:16.492Z,19
2017-09-19T09:13:38.667Z,19.14
2017-09-19T09:15:00.826Z,19.39
2017-09-19T09:16:22.662Z,19.1
2017-09-19T09:17:44.821Z,19.16
2017-09-19T09:19:07.262Z,19.36
2017-09-19T09:20:29.110Z,19.68
2017-09-19T09:21:51.545Z,19.76
2017-09-19T09:23:13.822Z,19.69
2017-09-19T09:24:36.053Z,19.77
2017-09-19T09:25:57.555Z,19.78
2017-09-19T09:27:20.001Z,19.66
2017-09-19T09:28:42.446Z,19.54
2017-09-19T09:30:04.593Z,19.47
2017-09-19T09:31:27.204Z,19.44
2017-09-19T09:32:49.954Z,19.33
2017-09-19T09:34:11.823Z,19.37
2017-09-19T09:35:34.285Z,19.37
2017-09-19T09:36:56.749Z,19.4
2017-09-19T09:38:19.298Z,19.33
2017-09-19T09:39:41.280Z,19.37
2017-09-19T09:41:03.730Z,19.39
2017-09-19T09:42:25.385Z,19.37
2017-09-19T09:43:47.513Z,19.37
2017-09-19T09:45:09.652Z,19.36
2017-09-19T09:46:32.172Z,19.51
2017-09-19T09:47:53.990Z,19.74
2017-09-19T09:49:15.902Z,19.98
2017-09-19T09:50:38.025Z,19.74
2017-09-19T09:51:59.853Z,19.54
2017-09-19T09:53:22.308Z,19.14
2017-09-19T09:54:44.433Z,18.9
2017-09-19T09:56:06.567Z,18.72
2017-09-19T09:57:27.742Z,18.65
2017-09-19T09:58:49.600Z,18.32
2017-09-19T10:00:11.772Z,18.32
2017-09-19T10:01:33.905Z,18.33
2017-09-19T10:02:56.154Z,18.36
2017-09-19T10:04:17.964Z,18.23
2017-09-19T10:05:40.463Z,18.32
2017-09-19T10:07:02.601Z,18.39
2017-09-19T10:08:24.816Z,18.48
2017-09-19T10:09:46.645Z,18.51
2017-09-19T10:11:09.473Z,18.25
2017-09-19T10:12:31.286Z,18.15
2017-09-19T10:13:53.438Z,18.29
2017-09-19T10:15:15.567Z,18.15
2017-09-19T10:16:37.723Z,18.14
2017-09-19T10:17:59.863Z,18.15
2017-09-19T10:19:21.363Z,18.05
2017-09-19T10:20:43.511Z,18.08
2017-09-19T10:22:06.262Z,18.05
2017-09-19T10:23:28.072Z,17.9
2017-09-19T10:24:49.902Z,17.82
2017-09-19T10:26:11.160Z,17.84
2017-09-19T10:27:32.998Z,17.64
2017-09-19T10:28:55.507Z,17.77
2017-09-19T10:30:17.391Z,17.99
2017-09-19T10:31:39.524Z,18.07
2017-09-19T10:33:01.734Z,18.17
2017-09-19T10:34:23.565Z,18.37
2017-09-19T10:35:45.363Z,18.48
2017-09-19T10:37:07.474Z,18.65
2017-09-19T10:38:44.850Z,18.69
2017-09-19T10:40:06.663Z,18.57
2017-09-19T10:41:28.813Z,18.76
2017-09-19T10:42:51.109Z,19.04
2017-09-19T10:44:13.585Z,19.13
2017-09-19T10:45:36.066Z,19.29
2017-09-19T10:46:57.875Z,19.33
2017-09-19T10:48:20.012Z,19.58
2017-09-19T10:49:42.493Z,19.84
2017-09-19T10:51:05.003Z,19.96
2017-09-19T10:52:27.242Z,20.02
2017-09-19T10:53:49.369Z,20.31
2017-09-19T10:55:11.863Z,20.58
2017-09-19T10:56:33.999Z,20.26
2017-09-19T10:57:56.123Z,19.77
2017-09-19T10:59:17.942Z,19.32
2017-09-19T11:00:40.533Z,18.92
2017-09-19T11:02:02.668Z,18.57
2017-09-19T11:03:24.953Z,18.33
2017-09-19T11:04:47.095Z,18.08
2017-09-19T11:06:09.272Z,17.82
2017-09-19T11:07:31.120Z,17.49
2017-09-19T11:08:52.313Z,17.33
2017-09-19T11:10:14.461Z,17.22
2017-09-19T11:11:36.839Z,17.07
2017-09-19T11:12:59.323Z,16.97
2017-09-19T11:14:21.454Z,16.93
2017-09-19T11:15:43.056Z,16.68
2017-09-19T11:17:05.560Z,16.63
2017-09-19T11:18:27.695Z,16.39
2017-09-19T11:19:49.851Z,16.41
2017-09-19T11:21:11.683Z,16.28
2017-09-19T11:22:34.015Z,16.27
2017-09-19T11:23:55.568Z,16.12
2017-09-19T11:25:17.395Z,16.09
2017-09-19T11:26:39.850Z,16.05
2017-09-19T11:28:02.653Z,15.83
2017-09-19T11:29:25.103Z,15.76
2017-09-19T11:30:47.233Z,15.74
2017-09-19T11:32:09.383Z,15.78
2017-09-19T11:33:31.908Z,15.86
2017-09-19T11:34:54.056Z,16.09
2017-09-19T11:36:15.912Z,16.15
2017-09-19T11:37:38.363Z,16.38
2017-09-19T11:39:00.847Z,16.42
2017-09-19T11:40:22.673Z,16.56
2017-09-19T11:41:44.571Z,16.64
2017-09-19T11:43:06.399Z,16.7
2017-09-19T11:44:29.226Z,16.85
2017-09-19T11:45:51.031Z,16.85
2017-09-19T11:47:12.530Z,16.71
2017-09-19T11:48:34.771Z,16.53
2017-09-19T11:49:56.502Z,16.5
2017-09-19T11:51:18.673Z,16.45
2017-09-19T11:52:40.822Z,16.39
2017-09-19T11:54:03.303Z,16.53
2017-09-19T11:55:25.692Z,16.56
2017-09-19T11:56:47.822Z,16.52
2017-09-19T11:58:10.307Z,16.45
2017-09-19T11:59:31.492Z,16.53
2017-09-19T12:00:53.988Z,16.5
2017-09-19T12:02:16.141Z,16.53
2017-09-19T12:03:38.283Z,16.85
2017-09-19T12:05:00.439Z,17
2017-09-19T12:06:22.936Z,17.12
2017-09-19T12:07:45.093Z,17
2017-09-19T12:09:07.556Z,16.97
2017-09-19T12:10:30.030Z,16.98
2017-09-19T12:11:52.503Z,17.03
2017-09-19T12:13:14.984Z,17.19
2017-09-19T12:14:36.933Z,17.22
2017-09-19T12:15:59.141Z,17.21
2017-09-19T12:17:21.296Z,17.15
2017-09-19T12:18:43.770Z,17.12
2017-09-19T12:20:05.274Z,17.03
2017-09-19T12:21:27.085Z,16.97
2017-09-19T12:22:49.467Z,16.97
2017-09-19T12:24:11.904Z,16.98
2017-09-19T12:25:33.732Z,17.01
2017-09-19T12:26:56.213Z,16.82
2017-09-19T12:28:18.714Z,16.78
2017-09-19T12:29:40.535Z,16.96
2017-09-19T12:31:02.663Z,16.98
2017-09-19T12:32:25.123Z,17.01
2017-09-19T12:33:47.953Z,17.01
2017-09-19T12:35:10.433Z,17.15
2017-09-19T12:36:32.279Z,17.31
2017-09-19T12:37:54.462Z,17.58
2017-09-19T12:39:16.884Z,17.84
2017-09-19T12:40:39.378Z,18.08
2017-09-19T12:42:01.523Z,18.14
2017-09-19T12:43:23.680Z,18.27
2017-09-19T12:44:45.846Z,18.35
2017-09-19T12:46:08.310Z,18.37
2017-09-19T12:47:30.822Z,18.51
2017-09-19T12:48:52.643Z,18.47
2017-09-19T12:50:14.837Z,18.45
2017-09-19T12:51:36.677Z,18.55
2017-09-19T12:52:58.851Z,18.67
2017-09-19T12:54:21.293Z,18.88
2017-09-19T12:55:44.132Z,19
2017-09-19T12:57:06.273Z,18.98
2017-09-19T12:58:28.193Z,18.95
2017-09-19T12:59:50.374Z,18.99
2017-09-19T13:01:13.002Z,18.8
2017-09-19T13:02:35.168Z,18.72
2017-09-19T13:03:57.654Z,18.63
2017-09-19T13:05:19.175Z,18.7
2017-09-19T13:06:41.946Z,18.87
2017-09-19T13:08:04.139Z,19.04
2017-09-19T13:09:26.470Z,19.22
2017-09-19T13:10:48.986Z,19.28
2017-09-19T13:12:11.810Z,19.36
2017-09-19T13:13:33.986Z,19.31
2017-09-19T13:14:56.536Z,19.29
2017-09-19T13:16:18.712Z,19.32
2017-09-19T13:17:41.129Z,19.37
2017-09-19T13:19:03.269Z,19.37
2017-09-19T13:20:25.783Z,19.44
2017-09-19T13:21:47.606Z,19.56
2017-09-19T13:23:10.343Z,19.48
2017-09-19T13:24:32.186Z,19.4
2017-09-19T13:25:54.695Z,19.46
2017-09-19T13:27:16.545Z,19.51
2017-09-19T13:28:39.086Z,19.4
2017-09-19T13:30:01.001Z,19.39
2017-09-19T13:31:23.232Z,19.58
2017-09-19T13:32:45.711Z,19.58
2017-09-19T13:34:08.110Z,19.62
2017-09-19T13:35:29.943Z,19.69
2017-09-19T13:36:52.093Z,19.73
2017-09-19T13:38:14.270Z,19.8
2017-09-19T13:39:36.480Z,19.92
2017-09-19T13:40:58.289Z,19.98
2017-09-19T13:42:19.483Z,20.1
2017-09-19T13:43:40.973Z,20.21
2017-09-19T13:45:03.813Z,20.42
2017-09-19T13:46:25.954Z,20.5
2017-09-19T13:47:47.805Z,20.38
2017-09-19T13:49:09.981Z,20.52
2017-09-19T13:50:32.234Z,20.57
2017-09-19T13:51:54.533Z,20.54
2017-09-19T13:53:16.682Z,20.57
2017-09-19T13:54:38.602Z,20.58
2017-09-19T13:56:01.048Z,20.62
2017-09-19T13:57:23.646Z,20.64
2017-09-19T13:58:45.783Z,20.52
2017-09-19T14:00:08.263Z,20.52
2017-09-19T14:01:30.142Z,20.36
2017-09-19T14:02:52.074Z,20.33
2017-09-19T14:04:14.333Z,20.18
2017-09-19T14:05:36.822Z,20.11
2017-09-19T14:06:58.940Z,20.01
2017-09-19T14:08:21.444Z,19.96
2017-09-19T14:09:43.621Z,19.78
2017-09-19T14:11:05.883Z,19.74
2017-09-19T14:12:28.732Z,19.55
2017-09-19T14:13:51.207Z,19.39
2017-09-19T14:15:13.143Z,19.18
2017-09-19T14:16:34.992Z,19.06
2017-09-19T14:17:57.834Z,18.99
2017-09-19T14:19:19.992Z,18.81
2017-09-19T14:20:41.842Z,18.82
2017-09-19T14:22:04.084Z,18.73
2017-09-19T14:23:41.094Z,18.55
2017-09-19T14:25:03.231Z,18.5
2017-09-19T14:26:25.192Z,18.26
2017-09-19T14:27:47.173Z,17.92
2017-09-19T14:29:10.012Z,17.54
2017-09-19T14:30:31.563Z,17.08
2017-09-19T14:31:53.850Z,16.76
2017-09-19T14:33:16.347Z,16.53
2017-09-19T14:34:38.886Z,16.11
2017-09-19T14:36:01.382Z,15.78
2017-09-19T14:37:23.536Z,15.5
2017-09-19T14:38:46.022Z,15.34
2017-09-19T14:40:08.851Z,15.2
2017-09-19T14:41:30.693Z,15.09
2017-09-19T14:42:52.517Z,15.03
2017-09-19T14:44:14.661Z,14.94
2017-09-19T14:45:37.404Z,14.77
2017-09-19T14:47:00.013Z,14.68
2017-09-19T14:48:22.181Z,14.73
2017-09-19T14:49:43.693Z,14.64
2017-09-19T14:51:06.214Z,14.72
2017-09-19T14:52:28.051Z,14.7
2017-09-19T14:53:50.218Z,14.81
2017-09-19T14:55:12.044Z,14.81
2017-09-19T14:56:34.302Z,14.8
2017-09-19T14:57:56.498Z,14.89
2017-09-19T14:59:18.980Z,14.94
2017-09-19T15:00:41.197Z,14.95
2017-09-19T15:02:04.033Z,14.98
2017-09-19T15:03:26.188Z,15.06
2017-09-19T15:04:48.669Z,15.13
2017-09-19T15:06:11.148Z,15.1
2017-09-19T15:07:33.750Z,15.28
2017-09-19T15:08:55.260Z,15.25
2017-09-19T15:10:17.413Z,15.38
2017-09-19T15:11:39.671Z,15.38
2017-09-19T15:13:01.793Z,15.39
2017-09-19T15:14:24.281Z,15.39
2017-09-19T15:15:46.135Z,15.16
2017-09-19T15:17:08.373Z,14.98
2017-09-19T15:18:30.591Z,14.78
2017-09-19T15:19:52.442Z,14.89
2017-09-19T15:21:14.591Z,14.92
2017-09-19T15:22:36.431Z,14.81
2017-09-19T15:23:58.225Z,14.89
2017-09-19T15:25:20.732Z,14.86
2017-09-19T15:26:43.216Z,14.83
2017-09-19T15:28:05.701Z,14.73
2017-09-19T15:29:28.281Z,15.01
2017-09-19T15:30:50.446Z,14.96
2017-09-19T15:32:12.657Z,15.13
2017-09-19T15:33:34.811Z,15.38
2017-09-19T15:34:57.302Z,15.56
2017-09-19T15:36:19.155Z,15.78
2017-09-19T15:37:41.732Z,15.96
2017-09-19T15:39:03.578Z,16.24
2017-09-19T15:40:25.664Z,16.39
2017-09-19T15:41:47.187Z,16.52
2017-09-19T15:43:09.351Z,16.66
2017-09-19T15:44:31.196Z,16.57
2017-09-19T15:45:54.189Z,16.53
2017-09-19T15:47:16.033Z,16.39
2017-09-19T15:48:38.582Z,16.43
2017-09-19T15:50:01.057Z,16.3
2017-09-19T15:51:23.230Z,16.31
2017-09-19T15:52:45.730Z,16.35
2017-09-19T15:54:08.342Z,16.2
2017-09-19T15:55:30.501Z,16.05
2017-09-19T15:56:53.360Z,15.87
2017-09-19T15:58:15.820Z,15.72
2017-09-19T15:59:37.980Z,15.59
2017-09-19T16:01:00.477Z,15.56
2017-09-19T16:02:23.312Z,15.44
2017-09-19T16:03:45.780Z,15.31
2017-09-19T16:05:07.928Z,15.31
2017-09-19T16:06:30.417Z,15.2
2017-09-19T16:07:53.227Z,15.16
2017-09-19T16:09:15.815Z,15.03
2017-09-19T16:10:37.994Z,15.06
2017-09-19T16:12:00.520Z,15.11
2017-09-19T16:13:22.373Z,15.1
2017-09-19T16:14:44.581Z,15.2
2017-09-19T16:16:07.041Z,15.23
2017-09-19T16:17:29.572Z,15.19
2017-09-19T16:18:51.836Z,15.23
2017-09-19T16:20:14.362Z,15.1
2017-09-19T16:21:36.519Z,15.07
2017-09-19T16:22:58.695Z,15.14
2017-09-19T16:24:21.248Z,15.09
2017-09-19T16:25:43.408Z,15.11
2017-09-19T16:27:05.998Z,15.1
2017-09-19T16:28:27.838Z,15.07
2017-09-19T16:29:50.354Z,15.11
2017-09-19T16:31:12.523Z,15.07
2017-09-19T16:32:34.384Z,15.01
2017-09-19T16:33:56.281Z,15.06
2017-09-19T16:35:18.807Z,14.95
2017-09-19T16:36:41.313Z,14.91
2017-09-19T16:38:03.779Z,14.91
2017-09-19T16:39:25.682Z,14.8
2017-09-19T16:40:47.848Z,14.69
2017-09-19T16:42:10.050Z,14.72
2017-09-19T16:43:32.212Z,14.78
2017-09-19T16:44:54.688Z,14.68
2017-09-19T16:46:17.521Z,14.65
2017-09-19T16:47:39.693Z,14.64
2017-09-19T16:49:02.193Z,14.69
2017-09-19T16:50:24.722Z,14.72
2017-09-19T16:51:47.749Z,14.7
2017-09-19T16:53:10.231Z,14.75
2017-09-19T16:54:32.380Z,14.86
2017-09-19T16:55:54.232Z,14.91
2017-09-19T16:57:16.422Z,14.89
2017-09-19T16:58:39.024Z,14.83
2017-09-19T17:00:01.518Z,14.83
2017-09-19T17:01:23.708Z,14.8
2017-09-19T17:02:46.510Z,14.77
2017-09-19T17:04:08.782Z,14.78
2017-09-19T17:05:30.942Z,14.77
2017-09-19T17:06:53.492Z,14.73
2017-09-19T17:08:16.222Z,14.69
2017-09-19T17:09:38.384Z,14.57
2017-09-19T17:11:00.868Z,14.57
2017-09-19T17:12:23.052Z,14.57
2017-09-19T17:13:45.465Z,14.47
2017-09-19T17:15:07.962Z,14.43
2017-09-19T17:16:30.122Z,14.29
2017-09-19T17:17:52.345Z,14.29
2017-09-19T17:19:15.174Z,14.39
2017-09-19T17:20:37.795Z,14.28
2017-09-19T17:21:59.979Z,14.24
2017-09-19T17:23:22.487Z,14.32
2017-09-19T17:24:45.332Z,14.21
2017-09-19T17:26:07.163Z,14.21
2017-09-19T17:27:29.334Z,14.2
2017-09-19T17:28:50.879Z,14.15
2017-09-19T17:30:13.968Z,14.06
2017-09-19T17:31:36.664Z,14.07
2017-09-19T17:32:59.472Z,14
2017-09-19T17:34:21.675Z,13.99
2017-09-19T17:35:44.464Z,13.95
2017-09-19T17:37:06.972Z,13.85
2017-09-19T17:38:29.595Z,13.84
2017-09-19T17:39:51.434Z,13.85
2017-09-19T17:41:13.586Z,13.79
2017-09-19T17:42:35.806Z,13.7
2017-09-19T17:43:58.300Z,13.66
2017-09-19T17:45:20.507Z,13.49
2017-09-19T17:46:43.317Z,13.45
2017-09-19T17:48:05.203Z,13.41
2017-09-19T17:49:27.708Z,13.3